Portada
METAR-TAF:

METAR-TAF

Aeropuertos :

Windom Municipal Airport

Windom, Minnesota, Estados Unidos

latitud: 43-54-48N, longitud: 095-06-34W, altitud: 430 m

Observación

El informe se hizo hace 25 minutos, a las 06:56 UTC
Viento 5 kt del este
Temperatura 9°C
Humedad 71%
Presión 1025 hPa
Visibilidad: 16.1 km
Cielo despejado

METAR: KMWM 310656Z AUTO 08005KT 10SM CLR 09/04 A3027 RMK AO2

Hora: 02:21 (07:21 UTC)


TAF: falta

Observaciones y pronósticos meteorológicos de más de 4000 aeropuertos (mensajes METAR y TAF).

Los puntos amarillos y rojos representan las estaciones disponibles.

Ponga el ratón en el punto deseado para ver el nombre de la estación.

Haga clic para ver las observaciones y los pronósticos meteorológicos.

Para cambiar el mapa : haga clic en los botones verdes con una cruz de color negro para hacer un zoom, en el botón verde con un guión para alejar o en las flechas verdes para mapas adyacentes.


METAR-TAF: